createdAt,value
2018-05-08T00:01:53.854Z,45.60
2018-05-08T00:04:20.760Z,45.10
2018-05-08T00:06:47.010Z,45.50
2018-05-08T00:09:14.687Z,45.50
2018-05-08T00:11:41.499Z,59.20
2018-05-08T00:16:36.338Z,49.80
2018-05-08T00:19:04.386Z,45.60
2018-05-08T00:21:32.016Z,45.30
2018-05-08T00:23:59.834Z,46.20
2018-05-08T00:26:28.582Z,45.10
2018-05-08T00:28:54.846Z,51.50
2018-05-08T00:31:21.432Z,46.30
2018-05-08T00:33:47.590Z,56.00
2018-05-08T00:36:14.888Z,46.70
2018-05-08T00:38:42.271Z,63.90
2018-05-08T00:41:08.665Z,66.50
2018-05-08T00:43:35.219Z,47.70
2018-05-08T00:46:01.745Z,46.50
2018-05-08T00:48:28.878Z,47.50
2018-05-08T00:50:55.433Z,46.90
2018-05-08T00:53:23.113Z,59.60
2018-05-08T00:55:49.328Z,57.60
2018-05-08T00:58:15.521Z,47.60
2018-05-08T01:00:41.725Z,57.50
2018-05-08T01:03:08.361Z,53.90
2018-05-08T01:08:03.233Z,47.10
2018-05-08T01:12:58.082Z,46.30
2018-05-08T01:15:24.285Z,66.30
2018-05-08T01:17:50.808Z,52.10
2018-05-08T01:20:17.379Z,46.40
2018-05-08T01:22:43.588Z,66.20
2018-05-08T01:25:11.267Z,45.70
2018-05-08T01:27:38.519Z,45.50
2018-05-08T01:30:04.678Z,57.90
2018-05-08T01:32:30.871Z,69.00
2018-05-08T01:34:59.131Z,45.90
2018-05-08T01:37:25.329Z,66.10
2018-05-08T01:39:51.876Z,47.40
2018-05-08T01:42:18.882Z,46.90
2018-05-08T01:46:28.729Z,47.30
2018-05-08T01:48:56.211Z,46.90
2018-05-08T01:51:22.766Z,52.70
2018-05-08T01:53:49.714Z,47.90
2018-05-08T01:56:16.687Z,48.50
2018-05-08T01:58:42.916Z,48.00
2018-05-08T02:01:09.451Z,47.90
2018-05-08T02:03:35.636Z,48.40
2018-05-08T02:08:30.061Z,47.10
2018-05-08T02:10:57.020Z,48.00
2018-05-08T02:13:24.010Z,47.40
2018-05-08T02:15:50.185Z,52.00
2018-05-08T02:18:17.078Z,47.30
2018-05-08T02:20:43.236Z,56.50
2018-05-08T02:23:09.421Z,52.30
2018-05-08T02:25:35.629Z,50.00
2018-05-08T02:28:02.528Z,47.70
2018-05-08T02:30:30.218Z,47.90
2018-05-08T02:32:57.966Z,46.10
2018-05-08T02:35:24.138Z,54.80
2018-05-08T02:37:50.317Z,48.60
2018-05-08T02:40:16.482Z,48.50
2018-05-08T02:42:43.443Z,47.60
2018-05-08T02:45:10.526Z,59.20
2018-05-08T02:47:36.743Z,53.00
2018-05-08T02:50:03.665Z,46.90
2018-05-08T02:52:29.934Z,59.40
2018-05-08T02:54:56.786Z,47.40
2018-05-08T02:57:23.351Z,47.70
2018-05-08T02:59:50.279Z,47.30
2018-05-08T03:02:16.446Z,48.50
2018-05-08T03:04:43.067Z,47.50
2018-05-08T03:07:10.357Z,47.70
2018-05-08T03:09:37.246Z,47.60
2018-05-08T03:12:03.425Z,48.40
2018-05-08T03:14:29.642Z,49.70
2018-05-08T03:16:55.775Z,48.30
2018-05-08T03:19:22.053Z,50.30
2018-05-08T03:21:48.867Z,48.10
2018-05-08T03:24:15.081Z,48.50
2018-05-08T03:26:41.261Z,48.50
2018-05-08T03:29:07.437Z,48.00
2018-05-08T03:31:33.624Z,47.70
2018-05-08T03:34:00.538Z,48.10
2018-05-08T03:36:26.750Z,48.90
2018-05-08T03:38:52.916Z,52.00
2018-05-08T03:41:19.127Z,50.40
2018-05-08T03:43:45.674Z,48.60
2018-05-08T03:46:12.267Z,48.80
2018-05-08T03:48:39.573Z,48.50
2018-05-08T03:51:05.802Z,48.80
2018-05-08T03:53:31.989Z,49.30
2018-05-08T03:55:58.155Z,49.30
2018-05-08T03:58:25.121Z,49.00
2018-05-08T04:01:04.310Z,48.80
2018-05-08T04:03:42.800Z,54.20
2018-05-08T04:06:21.179Z,50.30
2018-05-08T04:08:48.483Z,49.60
2018-05-08T04:11:14.648Z,49.30
2018-05-08T04:13:40.807Z,49.20
2018-05-08T04:16:07.016Z,55.00
2018-05-08T04:18:33.636Z,49.70
2018-05-08T04:21:01.353Z,50.60
2018-05-08T04:23:27.509Z,50.40
2018-05-08T04:25:53.705Z,51.20
2018-05-08T04:28:19.957Z,49.90
2018-05-08T04:30:46.546Z,50.20
2018-05-08T04:33:13.489Z,50.60
2018-05-08T04:35:40.454Z,51.10
2018-05-08T04:38:06.681Z,50.70
2018-05-08T04:40:32.884Z,50.50
2018-05-08T04:42:59.103Z,50.50
2018-05-08T04:45:26.790Z,51.30
2018-05-08T04:47:53.773Z,50.10
2018-05-08T04:50:19.920Z,56.60
2018-05-08T04:52:46.100Z,55.60
2018-05-08T04:55:13.034Z,50.70
2018-05-08T04:57:39.974Z,50.30
2018-05-08T05:00:06.551Z,50.50
2018-05-08T05:02:33.879Z,50.90
2018-05-08T05:05:01.546Z,50.90
2018-05-08T05:07:28.488Z,51.30
2018-05-08T05:09:55.401Z,51.40
2018-05-08T05:12:21.572Z,62.20
2018-05-08T05:14:47.733Z,57.10
2018-05-08T05:17:13.869Z,52.10
2018-05-08T05:19:40.188Z,66.10
2018-05-08T05:22:07.453Z,51.40
2018-05-08T05:24:34.117Z,50.00
2018-05-08T05:27:00.708Z,49.60
2018-05-08T05:29:26.857Z,57.30
2018-05-08T05:31:53.048Z,52.90
2018-05-08T05:34:19.201Z,57.50
2018-05-08T05:36:52.997Z,52.10
2018-05-08T05:39:19.613Z,48.60
2018-05-08T05:41:46.554Z,46.90
2018-05-08T05:44:13.501Z,47.30
2018-05-08T05:46:39.653Z,46.90
2018-05-08T05:49:05.848Z,46.70
2018-05-08T05:51:32.842Z,46.00
2018-05-08T05:53:59.454Z,44.10
2018-05-08T05:56:25.710Z,43.40
2018-05-08T05:58:51.932Z,44.70
2018-05-08T06:01:18.211Z,42.10
2018-05-08T06:03:44.771Z,43.30
2018-05-08T06:06:12.621Z,43.70
2018-05-08T06:08:39.266Z,41.10
2018-05-08T06:11:05.859Z,40.40
2018-05-08T06:13:32.808Z,41.00
2018-05-08T06:15:59.010Z,40.20
2018-05-08T06:18:25.172Z,41.30
2018-05-08T06:20:51.331Z,40.60
2018-05-08T06:23:18.250Z,39.50
2018-05-08T06:25:45.952Z,38.20
2018-05-08T06:28:12.163Z,39.70
2018-05-08T06:30:39.101Z,39.90
2018-05-08T06:33:05.332Z,43.00
2018-05-08T06:35:31.500Z,40.20
2018-05-08T06:37:57.688Z,36.00
2018-05-08T06:40:25.400Z,36.70
2018-05-08T06:42:52.733Z,37.90
2018-05-08T06:45:19.658Z,36.90
2018-05-08T06:47:46.676Z,36.70
2018-05-08T06:50:12.871Z,35.60
2018-05-08T06:52:39.085Z,35.50
2018-05-08T06:55:20.186Z,35.60
2018-05-08T06:57:46.734Z,35.40
2018-05-08T07:00:12.909Z,37.30
2018-05-08T07:02:40.327Z,34.10
2018-05-08T07:05:06.485Z,38.50
2018-05-08T07:07:33.535Z,34.90
2018-05-08T07:10:00.486Z,34.10
2018-05-08T07:12:29.454Z,36.50
2018-05-08T07:14:56.040Z,32.60
2018-05-08T07:17:22.980Z,32.30
2018-05-08T07:19:49.178Z,32.90
2018-05-08T07:22:15.356Z,33.70
2018-05-08T07:24:41.568Z,33.10
2018-05-08T07:27:07.756Z,36.00
2018-05-08T07:29:33.928Z,32.80
2018-05-08T07:32:00.470Z,31.60
2018-05-08T07:34:26.683Z,31.20
